العين, United Arab Emirates

12:21 AM GST on دسمبر 11, 2016 (GMT +0400)
Al Ain International | | Change Station

Elev 869 ft 24.26 °N, 55.61 °E | Updated 21 minutes ago

غائم كلياً
غائم كلياً
64 °F
Feels Like 64 °F
N
5
ريح متغير ريح from WSW

هذا اليوم
High -- | Low -- °F
--% Chance of Precip.
Yesterday
High -- | Low -- °F
Precip. -- في
الضغط 30.06 في
وضوح الرؤية 6.2 أميال
سحابات غائم كلياً 4600 ft
نقطة الندى 48 °F
الرطوبة 56%
Rainfall 0.00 في
عمق الثلج Not available.
6:51 AM 5:30 PM
الأحدب الأول, 86% visible
METAR OMAL 102000Z 24004KT 9999 BKN046 18/09 Q1018 NOSIG
الضغط 30.06 في
وضوح الرؤية 6.2 أميال
سحابات غائم كلياً 4600 ft
نقطة الندى 48 °F
الرطوبة 56%
Rainfall 0.00 في
عمق الثلج Not available.
6:51 AM 5:30 PM
الأحدب الأول, 86% visible
METAR OMAL 102000Z 24004KT 9999 BKN046 18/09 Q1018 NOSIG

10-Day Weather Forecast

No radar image for this location.
×

Almanac

علم الفلك

Dec. 11, 2016 Rise Set
Actual Time
Civil Twilight
Nautical Twilight
Astronomical Twilight
قمر
Length Of Visible Light
طول الیوم
Tomorrow will be .
, % of the Moon is Illuminated

Today's Extremes

Country Highs Country Lows

Community

WunderPhotos

Upload Photos

1,956,651 photos uploaded!

WunderBlog® & News

Nearby

جودة الهواء

  جودة الهواء AQ Index Pollutant
Not available.

عمق الثلج

Station Depth Elevation

Earthquake Activity

City Distance Mag. Time & Date
Minimum magnitude displayed is 2.5.

Coastal Water Temperatures

مكان درجات الحرارة

Stations

Nearby Weather Stations

Station Location الحرارة رياح باردة نقطة الندى الرطوبة ريح Precip. Elev تحديث Type